Time;durP1;ratioP1;P1;durP2;ratioP2;P2;SDS_P1;SDS_P2;PMS_P1;PMS_P2;Temp;Humidity;BMP_temperature;BMP_pressure;BME280_temperature;BME280_humidity;BME280_pressure;Samples;Min_cycle;Max_cycle;Signal;HPM_P1;HPM_P2
2022/03/07 00:02:18;;;;;;;43.92;37.95;;;27.00;97.20;;;;;;1868888;76;21089;-86
2022/03/07 00:04:49;;;;;;;45.15;37.40;;;27.60;96.40;;;;;;1869875;76;21116;-85
2022/03/07 00:07:19;;;;;;;43.65;36.20;;;27.50;95.50;;;;;;1841111;77;21217;-85
2022/03/07 00:09:50;;;;;;;47.27;36.08;;;27.50;95.30;;;;;;1835014;77;21190;-85
2022/03/07 00:12:22;;;;;;;41.53;36.58;;;27.60;97.90;;;;;;1826757;77;21621;-86
2022/03/07 00:14:54;;;;;;;43.73;36.40;;;27.60;96.00;;;;;;1824828;77;21176;-85
2022/03/07 00:17:24;;;;;;;43.08;35.17;;;27.60;98.10;;;;;;1827907;77;21632;-86
2022/03/07 00:19:55;;;;;;;48.30;36.70;;;27.60;99.60;;;;;;1847040;77;21084;-86
2022/03/07 00:22:26;;;;;;;46.35;38.08;;;27.60;97.70;;;;;;1840873;77;21108;-86
2022/03/07 00:24:57;;;;;;;44.90;38.50;;;27.80;98.60;;;;;;1826485;77;21108;-85
2022/03/07 00:27:27;;;;;;;47.40;39.65;;;27.60;99.20;;;;;;1825440;77;21088;-86
2022/03/07 00:29:58;;;;;;;49.00;39.78;;;27.70;99.90;;;;;;1826997;77;21167;-86
2022/03/07 00:32:29;;;;;;;47.23;38.95;;;27.60;95.60;;;;;;1802336;79;21206;-86
2022/03/07 00:35:00;;;;;;;47.67;39.63;;;27.60;96.80;;;;;;1837228;77;21154;-86
2022/03/07 00:37:32;;;;;;;49.40;40.83;;;27.60;99.90;;;;;;1839266;77;21711;-86
2022/03/07 00:40:05;;;;;;;48.23;41.23;;;27.60;99.90;;;;;;1829296;76;21174;-83
2022/03/07 00:42:35;;;;;;;46.23;40.33;;;27.60;88.90;;;;;;1841448;77;21083;-85
2022/03/07 00:45:10;;;;;;;44.93;38.45;;;27.60;90.00;;;;;;1839934;76;21106;-86
2022/03/07 00:47:41;;;;;;;52.27;40.70;;;27.60;89.70;;;;;;1829214;77;21609;-85
2022/03/07 00:50:12;;;;;;;49.03;39.60;;;27.60;89.50;;;;;;1835967;77;21169;-85
2022/03/07 00:52:43;;;;;;;49.15;40.75;;;27.70;89.70;;;;;;1832110;77;21167;-85
2022/03/07 00:55:13;;;;;;;48.42;38.25;;;27.70;89.50;;;;;;1838970;77;21236;-85
2022/03/07 00:57:44;;;;;;;44.33;39.13;;;27.70;89.20;;;;;;1835589;77;21147;-85
2022/03/07 01:00:16;;;;;;;42.93;38.20;;;27.80;89.50;;;;;;1846779;76;21241;-85
2022/03/07 01:02:47;;;;;;;47.03;39.35;;;27.80;89.20;;;;;;1841223;77;21385;-85
2022/03/07 01:05:19;;;;;;;44.85;39.00;;;27.90;89.40;;;;;;1846424;76;21083;-84
2022/03/07 01:07:50;;;;;;;48.42;39.78;;;27.90;89.20;;;;;;1833257;77;21763;-85
2022/03/07 01:10:21;;;;;;;47.80;39.58;;;27.90;88.90;;;;;;1830761;77;21220;-85
2022/03/07 01:12:52;;;;;;;47.73;41.10;;;27.90;89.10;;;;;;1825960;77;21064;-84
2022/03/07 01:15:23;;;;;;;52.60;42.20;;;28.00;89.50;;;;;;1840824;77;21705;-85
2022/03/07 01:17:54;;;;;;;46.35;40.23;;;27.90;89.70;;;;;;1835986;77;21151;-84
2022/03/07 01:20:25;;;;;;;47.73;40.83;;;28.00;90.00;;;;;;1843850;77;21166;-83
2022/03/07 01:22:56;;;;;;;49.65;40.43;;;28.00;89.70;;;;;;1838212;76;21216;-86
2022/03/07 01:25:27;;;;;;;44.95;40.03;;;28.10;90.00;;;;;;1841565;76;21083;-83
2022/03/07 01:27:58;;;;;;;49.98;42.62;;;28.10;89.50;;;;;;1801044;77;21479;-83
2022/03/07 01:30:29;;;;;;;46.23;40.90;;;28.20;89.00;;;;;;1835103;77;21198;-86
2022/03/07 01:32:59;;;;;;;49.80;39.85;;;28.30;88.70;;;;;;1826605;76;21132;-86
2022/03/07 01:35:31;;;;;;;46.10;39.78;;;28.30;88.40;;;;;;1831713;77;22392;-82
2022/03/07 01:38:03;;;;;;;48.85;40.38;;;28.40;88.50;;;;;;1825773;76;21225;-71
2022/03/07 01:40:34;;;;;;;44.83;39.58;;;28.40;87.50;;;;;;1828977;76;21149;-70
2022/03/07 01:43:06;;;;;;;50.43;42.15;;;28.50;87.60;;;;;;1824407;76;21234;-71
2022/03/07 01:45:38;;;;;;;48.20;40.17;;;28.50;87.80;;;;;;1824855;76;21746;-70
2022/03/07 01:48:09;;;;;;;47.48;41.35;;;28.60;87.70;;;;;;1834602;76;21705;-70
2022/03/07 01:50:39;;;;;;;44.18;36.20;;;28.70;87.60;;;;;;1826300;76;21804;-71
2022/03/07 01:53:10;;;;;;;42.90;37.38;;;28.80;87.00;;;;;;1830296;76;21179;-70
2022/03/07 01:55:41;;;;;;;49.00;40.60;;;28.80;85.70;;;;;;1824808;76;21194;-72
2022/03/07 01:58:12;;;;;;;46.60;40.85;;;28.90;85.00;;;;;;1827056;76;21237;-71
2022/03/07 02:00:43;;;;;;;47.15;38.40;;;28.90;84.60;;;;;;1831381;76;21714;-71
2022/03/07 02:03:14;;;;;;;48.13;39.08;;;29.00;85.00;;;;;;1825949;76;21077;-71
2022/03/07 02:05:47;;;;;;;47.20;39.25;;;29.00;85.00;;;;;;1822611;76;21147;-72
2022/03/07 02:08:18;;;;;;;44.83;37.05;;;29.10;84.50;;;;;;1818977;78;21084;-71
2022/03/07 02:10:48;;;;;;;43.65;36.93;;;29.20;83.70;;;;;;1825586;76;21164;-70
2022/03/07 02:13:21;;;;;;;40.58;36.33;;;29.20;82.40;;;;;;1826059;76;21175;-71
2022/03/07 02:15:53;;;;;;;42.30;36.70;;;29.30;82.00;;;;;;1823536;76;21246;-72
2022/03/07 02:18:24;;;;;;;41.63;37.20;;;29.40;81.50;;;;;;1829419;76;21238;-72
2022/03/07 02:20:57;;;;;;;45.10;37.48;;;29.50;80.50;;;;;;1828272;77;21198;-73
2022/03/07 02:23:28;;;;;;;42.13;36.28;;;29.50;80.10;;;;;;1823381;76;21600;-72
2022/03/07 02:25:59;;;;;;;41.48;36.30;;;29.60;79.50;;;;;;1827245;77;21690;-70
2022/03/07 02:28:31;;;;;;;44.45;36.45;;;29.70;79.70;;;;;;1824161;76;21162;-70
2022/03/07 02:31:02;;;;;;;44.73;37.33;;;29.80;80.00;;;;;;1832110;76;21116;-70
2022/03/07 02:33:34;;;;;;;41.63;37.15;;;29.90;79.30;;;;;;1840813;77;21132;-69
2022/03/07 02:36:05;;;;;;;41.23;36.70;;;30.00;78.40;;;;;;1850500;76;21139;-70
2022/03/07 02:38:36;;;;;;;42.03;37.28;;;30.00;77.80;;;;;;1845097;77;21330;-71
2022/03/07 02:41:07;;;;;;;39.83;35.25;;;30.10;77.60;;;;;;1848951;77;21698;-71
2022/03/07 02:43:38;;;;;;;41.53;36.93;;;30.20;77.40;;;;;;1838489;77;21543;-70
2022/03/07 02:46:09;;;;;;;43.80;38.08;;;30.30;77.30;;;;;;1847609;77;21606;-72
2022/03/07 02:48:40;;;;;;;40.28;35.92;;;30.30;76.90;;;;;;1843556;76;21638;-71
2022/03/07 02:51:11;;;;;;;39.00;34.75;;;30.40;76.50;;;;;;1791559;78;21118;-71
2022/03/07 02:53:42;;;;;;;45.65;40.35;;;30.50;76.30;;;;;;1817324;78;21146;-71
2022/03/07 02:56:13;;;;;;;41.77;37.30;;;30.60;76.10;;;;;;1789462;79;21237;-71
2022/03/07 02:58:43;;;;;;;40.65;35.40;;;30.70;75.90;;;;;;1798638;78;21226;-70
2022/03/07 03:01:15;;;;;;;40.40;35.23;;;30.80;75.50;;;;;;1846602;75;21768;-71
2022/03/07 03:03:45;;;;;;;41.00;36.60;;;30.80;75.50;;;;;;1848194;75;21770;-72
2022/03/07 03:06:17;;;;;;;41.00;36.25;;;30.90;75.40;;;;;;1860416;75;21116;-71
2022/03/07 03:08:50;;;;;;;41.95;36.40;;;30.90;76.10;;;;;;1847276;77;21072;-70
2022/03/07 03:11:20;;;;;;;41.13;36.58;;;31.00;75.40;;;;;;1841961;77;21249;-70
2022/03/07 03:13:52;;;;;;;43.90;37.00;;;31.10;74.90;;;;;;1840792;77;21613;-72
2022/03/07 03:16:23;;;;;;;40.88;35.73;;;31.10;74.50;;;;;;1846495;75;21674;-71
2022/03/07 03:18:54;;;;;;;42.45;36.55;;;31.20;74.40;;;;;;1836942;77;21132;-71
2022/03/07 03:21:25;;;;;;;40.20;35.90;;;31.30;74.40;;;;;;1839615;77;21183;-70
2022/03/07 03:23:56;;;;;;;38.90;34.73;;;31.30;74.40;;;;;;1837629;77;21217;-71
2022/03/07 03:26:27;;;;;;;40.92;36.30;;;31.40;74.40;;;;;;1834982;76;21677;-69
2022/03/07 03:28:58;;;;;;;41.70;37.17;;;31.50;74.10;;;;;;1840924;77;21209;-70
2022/03/07 03:31:29;;;;;;;41.15;36.75;;;31.60;74.30;;;;;;1839690;76;21214;-73
2022/03/07 03:34:00;;;;;;;42.23;36.38;;;31.70;74.50;;;;;;1829267;76;21252;-73
2022/03/07 03:36:31;;;;;;;42.20;36.65;;;31.80;73.20;;;;;;1830769;76;21698;-73
2022/03/07 03:39:02;;;;;;;41.65;35.75;;;31.90;72.10;;;;;;1820964;76;21174;-74
2022/03/07 03:41:32;;;;;;;44.00;35.30;;;32.10;72.20;;;;;;1819619;76;21144;-70
2022/03/07 03:44:03;;;;;;;42.45;36.25;;;32.20;73.30;;;;;;1823490;76;21207;-72
2022/03/07 03:46:53;;;;;;;40.90;36.60;;;32.40;71.50;;;;;;1823077;78;21132;-71
2022/03/07 03:49:24;;;;;;;42.05;36.03;;;32.40;71.60;;;;;;1828531;77;21241;-71
2022/03/07 03:51:55;;;;;;;39.00;34.90;;;32.50;72.00;;;;;;1905850;74;21142;-68
2022/03/07 03:54:26;;;;;;;40.23;35.83;;;32.60;71.90;;;;;;1898192;74;21162;-70
2022/03/07 03:56:57;;;;;;;41.18;35.60;;;32.60;72.00;;;;;;1861220;75;21161;-71
2022/03/07 03:59:27;;;;;;;42.73;35.10;;;32.60;72.00;;;;;;1910938;74;21231;-69
2022/03/07 04:02:00;;;;;;;40.88;36.17;;;32.70;72.10;;;;;;1907259;74;21198;-69
2022/03/07 04:04:31;;;;;;;44.25;35.92;;;32.70;71.60;;;;;;1919825;74;21515;-71
2022/03/07 04:07:01;;;;;;;39.78;35.38;;;32.80;71.60;;;;;;1872193;75;21167;-68
2022/03/07 04:09:32;;;;;;;41.35;33.65;;;32.90;71.70;;;;;;1897249;74;21539;-71
2022/03/07 04:12:03;;;;;;;38.08;33.08;;;33.00;71.50;;;;;;1914984;74;21099;-70
2022/03/07 04:14:34;;;;;;;39.05;34.55;;;33.00;70.80;;;;;;1899679;74;21065;-71
2022/03/07 04:17:05;;;;;;;39.25;33.90;;;33.10;70.40;;;;;;1901341;74;21657;-72
2022/03/07 04:19:36;;;;;;;37.48;33.20;;;33.20;69.50;;;;;;1855073;75;21240;-69
2022/03/07 04:22:07;;;;;;;35.70;31.95;;;33.20;70.40;;;;;;1897605;74;21155;-69
2022/03/07 04:24:39;;;;;;;37.20;33.30;;;33.30;69.10;;;;;;1895262;74;21148;-70
2022/03/07 04:27:09;;;;;;;39.03;32.42;;;33.30;69.80;;;;;;1893303;74;21107;-70
2022/03/07 04:29:40;;;;;;;36.13;32.23;;;33.30;69.50;;;;;;1907477;74;21264;-71
2022/03/07 04:32:11;;;;;;;37.98;33.98;;;33.40;70.10;;;;;;1894035;74;21233;-71
2022/03/07 04:34:42;;;;;;;39.33;32.78;;;33.50;69.50;;;;;;1864879;76;21348;-71
2022/03/07 04:37:13;;;;;;;37.03;33.33;;;33.50;69.00;;;;;;1894765;74;21224;-69
2022/03/07 04:39:44;;;;;;;35.92;32.15;;;33.60;68.70;;;;;;1895820;74;21231;-70
2022/03/07 04:42:15;;;;;;;35.35;31.05;;;33.80;68.40;;;;;;1896990;74;21156;-69
2022/03/07 04:44:46;;;;;;;32.40;28.90;;;33.80;67.70;;;;;;1896209;74;21182;-70
2022/03/07 04:47:17;;;;;;;32.63;29.42;;;33.70;67.80;;;;;;1896182;74;21122;-69
2022/03/07 04:49:48;;;;;;;33.15;29.70;;;33.70;67.10;;;;;;1840550;76;21740;-70
2022/03/07 04:52:18;;;;;;;34.92;31.10;;;33.80;67.00;;;;;;1829834;76;21156;-69
2022/03/07 04:54:49;;;;;;;33.63;30.10;;;33.80;67.50;;;;;;1809281;78;21665;-71
2022/03/07 04:57:20;;;;;;;32.25;28.85;;;33.80;67.30;;;;;;1840952;77;21589;-71
2022/03/07 04:59:51;;;;;;;35.05;30.70;;;33.80;67.10;;;;;;1804202;78;21899;-71
2022/03/07 05:02:22;;;;;;;33.28;29.87;;;34.00;67.20;;;;;;1809350;78;21149;-71
2022/03/07 05:04:53;;;;;;;31.55;28.15;;;34.10;66.90;;;;;;1813562;78;21142;-71
2022/03/07 05:07:24;;;;;;;29.48;26.45;;;34.10;66.30;;;;;;1799877;78;21134;-70
2022/03/07 05:09:55;;;;;;;30.35;26.85;;;34.20;67.10;;;;;;1808868;78;21736;-70
2022/03/07 05:12:26;;;;;;;30.48;27.05;;;34.30;64.90;;;;;;1810698;78;21174;-71
2022/03/07 05:14:57;;;;;;;29.18;26.05;;;34.40;64.80;;;;;;1809982;78;21216;-71
2022/03/07 05:17:28;;;;;;;31.27;27.98;;;34.50;64.50;;;;;;1807694;78;21122;-71
2022/03/07 05:19:59;;;;;;;30.12;27.02;;;34.60;65.40;;;;;;1804472;78;21649;-71
2022/03/07 05:22:29;;;;;;;29.77;26.62;;;34.60;63.70;;;;;;1841030;77;21729;-70
2022/03/07 05:25:01;;;;;;;27.67;24.87;;;34.60;64.50;;;;;;1839041;77;21269;-70
2022/03/07 05:27:32;;;;;;;27.40;24.18;;;34.80;63.80;;;;;;1833239;77;21633;-71
2022/03/07 05:30:04;;;;;;;25.50;23.00;;;34.80;62.30;;;;;;1840055;77;21158;-72
2022/03/07 05:32:35;;;;;;;27.13;23.70;;;34.80;61.40;;;;;;1844347;77;21161;-70
2022/03/07 05:35:25;;;;;;;24.52;21.12;;;34.90;59.50;;;;;;1838566;76;21092;-75
2022/03/07 05:37:56;;;;;;;23.42;18.80;;;34.90;60.00;;;;;;1776623;79;21628;-76
2022/03/07 05:40:27;;;;;;;22.80;20.35;;;35.00;58.80;;;;;;1796653;78;21178;-76
2022/03/07 05:42:58;;;;;;;28.42;24.43;;;35.00;58.10;;;;;;1793633;78;21142;-77
2022/03/07 05:45:29;;;;;;;26.23;22.42;;;35.00;58.90;;;;;;1793371;78;21258;-76
2022/03/07 05:48:00;;;;;;;23.80;20.08;;;35.00;58.70;;;;;;1797893;78;21124;-76
2022/03/07 05:50:30;;;;;;;22.10;19.87;;;35.00;57.80;;;;;;1803242;78;21710;-77
2022/03/07 05:53:01;;;;;;;21.85;19.85;;;35.00;58.40;;;;;;1794189;78;21186;-75
2022/03/07 05:55:32;;;;;;;24.72;22.13;;;34.90;58.70;;;;;;1797517;78;21219;-76
2022/03/07 05:58:03;;;;;;;20.60;18.10;;;35.00;59.20;;;;;;1799325;78;21682;-75
2022/03/07 06:00:35;;;;;;;22.15;19.85;;;35.00;57.50;;;;;;1811543;78;21166;-76
2022/03/07 06:03:06;;;;;;;23.40;21.00;;;35.00;57.80;;;;;;1793457;78;21699;-75
2022/03/07 06:05:37;;;;;;;22.95;20.52;;;35.00;57.70;;;;;;1767948;80;21245;-73
2022/03/07 06:08:08;;;;;;;21.75;19.12;;;35.00;58.30;;;;;;1806581;78;21252;-73
2022/03/07 06:10:38;;;;;;;25.32;19.12;;;35.00;56.80;;;;;;1793597;78;21116;-73
2022/03/07 06:13:09;;;;;;;21.60;19.25;;;35.10;57.10;;;;;;1791354;78;21108;-74
2022/03/07 06:15:43;;;;;;;19.37;17.40;;;35.10;57.30;;;;;;1788869;78;22106;-73
2022/03/07 06:18:13;;;;;;;19.17;17.10;;;35.10;56.30;;;;;;1805526;78;21147;-73
2022/03/07 06:20:44;;;;;;;20.90;18.67;;;35.20;57.40;;;;;;1799449;78;21224;-73
2022/03/07 06:23:14;;;;;;;20.55;18.37;;;35.20;56.80;;;;;;1788328;78;21158;-74
2022/03/07 06:25:45;;;;;;;22.80;19.50;;;35.30;57.90;;;;;;1795543;78;21665;-74
2022/03/07 06:28:16;;;;;;;21.10;18.90;;;35.30;56.00;;;;;;1794252;78;21645;-73
2022/03/07 06:30:48;;;;;;;18.90;16.95;;;35.40;56.00;;;;;;1791513;78;21152;-74
2022/03/07 06:33:19;;;;;;;22.27;19.75;;;35.40;55.80;;;;;;1803199;78;21210;-72
2022/03/07 06:35:49;;;;;;;22.27;19.20;;;35.50;56.30;;;;;;1799460;78;21140;-73
2022/03/07 06:38:21;;;;;;;22.15;19.82;;;35.50;55.40;;;;;;1827548;77;21194;-73
2022/03/07 06:40:52;;;;;;;21.35;19.17;;;35.60;55.80;;;;;;1797689;78;21618;-73
2022/03/07 06:43:23;;;;;;;22.20;19.50;;;35.60;55.50;;;;;;1810058;78;21201;-73
2022/03/07 06:45:54;;;;;;;19.87;17.87;;;35.60;54.90;;;;;;1801546;78;21203;-73
2022/03/07 06:48:25;;;;;;;24.30;19.48;;;35.60;55.30;;;;;;1782093;78;21201;-72
2022/03/07 06:50:56;;;;;;;43.65;20.05;;;35.60;55.30;;;;;;1785464;79;21687;-75
2022/03/07 06:53:27;;;;;;;46.68;15.28;;;35.50;55.80;;;;;;1802392;78;22304;-74
2022/03/07 06:55:57;;;;;;;33.00;14.18;;;35.20;56.30;;;;;;1829792;77;21610;-72
2022/03/07 06:58:28;;;;;;;36.83;12.53;;;34.80;56.30;;;;;;1815802;77;21199;-71
2022/03/07 07:00:59;;;;;;;29.67;11.30;;;34.20;57.00;;;;;;1819134;77;21117;-71
2022/03/07 07:03:30;;;;;;;28.87;11.38;;;33.60;58.70;;;;;;1814663;77;21069;-72
2022/03/07 07:06:01;;;;;;;27.10;10.18;;;32.90;60.60;;;;;;1821521;77;21249;-73
2022/03/07 07:08:32;;;;;;;21.45;11.68;;;32.40;62.90;;;;;;1823177;77;21162;-72
2022/03/07 07:11:03;;;;;;;27.10;11.88;;;31.80;65.80;;;;;;1819591;77;21597;-71
2022/03/07 07:13:34;;;;;;;21.30;11.83;;;31.30;68.20;;;;;;1827138;77;21190;-71
2022/03/07 07:16:04;;;;;;;15.40;10.48;;;;;;;;;;1816598;77;21092;-72
2022/03/07 07:18:35;;;;;;;20.27;9.75;;;30.50;71.50;;;;;;1813735;77;21127;-74
2022/03/07 07:21:07;;;;;;;16.40;11.63;;;30.10;73.10;;;;;;1818977;77;21093;-72
2022/03/07 07:23:37;;;;;;;16.57;11.70;;;29.70;74.40;;;;;;1820323;77;21766;-71
2022/03/07 07:26:10;;;;;;;13.98;10.08;;;29.50;75.60;;;;;;1817840;77;21610;-74
2022/03/07 07:28:40;;;;;;;18.02;10.13;;;29.40;75.40;;;;;;1821022;77;21152;-75
2022/03/07 07:31:11;;;;;;;19.92;17.15;;;29.40;76.60;;;;;;1815415;77;21721;-74
2022/03/07 07:33:44;;;;;;;20.68;16.70;;;29.40;76.50;;;;;;1828805;77;21176;-75
2022/03/07 07:36:15;;;;;;;14.80;12.45;;;29.40;75.80;;;;;;1819675;77;21751;-73
2022/03/07 07:38:46;;;;;;;11.65;9.85;;;29.50;75.80;;;;;;1817307;77;21654;-74
2022/03/07 07:41:17;;;;;;;16.55;10.80;;;29.60;74.70;;;;;;1831865;77;21136;-74
2022/03/07 07:43:49;;;;;;;12.70;10.60;;;29.70;74.60;;;;;;1837206;77;21158;-72
2022/03/07 07:46:20;;;;;;;16.48;10.60;;;29.80;73.90;;;;;;1828770;77;21100;-73
2022/03/07 07:48:51;;;;;;;14.98;10.00;;;29.90;73.80;;;;;;1826602;77;21676;-72
2022/03/07 07:51:23;;;;;;;15.30;9.93;;;30.00;73.20;;;;;;1830360;77;21150;-75
2022/03/07 07:53:54;;;;;;;13.83;10.03;;;30.10;73.20;;;;;;1829519;76;21573;-74
2022/03/07 07:56:25;;;;;;;12.63;10.03;;;30.20;72.80;;;;;;1829866;77;21185;-74
2022/03/07 07:58:56;;;;;;;10.78;9.28;;;30.30;72.40;;;;;;1827346;77;21201;-73
2022/03/07 08:01:28;;;;;;;12.00;9.08;;;30.40;71.80;;;;;;1828644;77;21134;-76
2022/03/07 08:03:59;;;;;;;10.13;9.13;;;30.30;71.50;;;;;;1833478;77;21152;-73
2022/03/07 08:06:30;;;;;;;9.68;8.68;;;30.40;71.60;;;;;;1826606;77;21208;-71
2022/03/07 08:09:02;;;;;;;12.28;10.58;;;30.40;70.60;;;;;;1827006;77;21241;-73
2022/03/07 08:11:33;;;;;;;11.08;9.93;;;30.30;70.80;;;;;;1825163;77;21146;-77
2022/03/07 08:14:04;;;;;;;12.43;10.13;;;30.20;70.80;;;;;;1831816;77;21260;-74
2022/03/07 08:16:34;;;;;;;10.40;9.05;;;30.10;71.20;;;;;;1838761;77;21307;-75
2022/03/07 08:19:05;;;;;;;11.28;9.43;;;30.00;70.90;;;;;;1837925;77;21182;-75
2022/03/07 08:21:36;;;;;;;11.20;8.88;;;29.90;70.30;;;;;;1835505;77;21223;-74
2022/03/07 08:24:07;;;;;;;9.80;8.80;;;29.80;71.00;;;;;;1828514;77;21264;-76
2022/03/07 08:26:39;;;;;;;12.05;9.00;;;29.60;71.20;;;;;;1830547;77;21181;-74
2022/03/07 08:29:09;;;;;;;9.15;8.25;;;29.60;71.90;;;;;;1828424;77;21162;-73
2022/03/07 08:31:40;;;;;;;9.93;8.38;;;29.40;72.20;;;;;;1821502;77;21149;-74
2022/03/07 08:34:11;;;;;;;10.03;9.03;;;29.30;72.80;;;;;;1799145;78;21288;-72
2022/03/07 08:36:42;;;;;;;13.88;9.00;;;29.20;73.70;;;;;;1830218;77;21123;-75
2022/03/07 08:39:13;;;;;;;10.55;9.45;;;29.00;74.10;;;;;;1826138;77;21722;-74
2022/03/07 08:41:43;;;;;;;11.70;10.15;;;28.90;73.90;;;;;;1820241;77;21688;-77
2022/03/07 08:44:14;;;;;;;13.83;10.50;;;28.80;74.40;;;;;;1817725;77;21657;-76
2022/03/07 08:46:44;;;;;;;11.33;10.23;;;28.70;75.00;;;;;;1814248;77;21170;-76
2022/03/07 08:49:15;;;;;;;12.33;11.10;;;28.70;74.90;;;;;;1812892;77;21159;-76
2022/03/07 08:51:46;;;;;;;14.55;11.68;;;28.70;75.30;;;;;;1801846;78;21101;-76
2022/03/07 08:54:17;;;;;;;16.62;13.75;;;28.70;75.40;;;;;;1805191;77;21273;-76
2022/03/07 08:56:48;;;;;;;15.15;13.62;;;28.70;76.00;;;;;;1802458;78;21186;-77
2022/03/07 08:59:18;;;;;;;15.25;13.75;;;28.70;76.20;;;;;;1804644;78;21610;-76
2022/03/07 09:01:49;;;;;;;19.27;15.13;;;28.70;76.00;;;;;;1804269;78;21136;-76
2022/03/07 09:04:20;;;;;;;18.62;15.60;;;28.80;76.00;;;;;;1794784;78;21162;-75
2022/03/07 09:06:52;;;;;;;17.92;16.02;;;28.80;76.20;;;;;;1813062;77;21133;-75
2022/03/07 09:09:23;;;;;;;18.10;16.20;;;28.80;76.40;;;;;;1822840;77;21189;-74
2022/03/07 09:11:56;;;;;;;19.40;17.20;;;28.80;76.30;;;;;;1816239;77;21123;-77
2022/03/07 09:14:28;;;;;;;20.95;18.52;;;28.80;76.20;;;;;;1817037;77;21303;-76
2022/03/07 09:16:59;;;;;;;20.12;17.85;;;28.80;77.90;;;;;;1810269;77;21144;-77
2022/03/07 09:19:30;;;;;;;24.20;20.68;;;28.70;78.50;;;;;;1801193;78;21458;-78
2022/03/07 09:22:01;;;;;;;21.35;19.10;;;28.60;79.80;;;;;;1794376;78;21461;-76
2022/03/07 09:24:31;;;;;;;23.18;19.87;;;28.60;79.80;;;;;;1819934;77;21091;-77
2022/03/07 09:27:02;;;;;;;23.18;19.23;;;28.60;80.00;;;;;;1805149;77;21709;-76
2022/03/07 09:29:33;;;;;;;22.55;20.08;;;28.50;79.70;;;;;;1805871;78;21198;-77
2022/03/07 09:32:05;;;;;;;22.27;19.45;;;28.40;81.10;;;;;;1803169;77;21176;-77
2022/03/07 09:34:37;;;;;;;25.57;19.75;;;28.40;81.30;;;;;;1805338;78;21701;-76
2022/03/07 09:37:10;;;;;;;24.00;21.25;;;28.40;81.40;;;;;;1780335;79;21180;-76
2022/03/07 09:39:40;;;;;;;25.32;19.37;;;28.30;82.40;;;;;;1777135;78;21657;-76
2022/03/07 09:42:11;;;;;;;25.70;21.40;;;28.20;81.90;;;;;;1795429;77;21202;-76
2022/03/07 09:44:42;;;;;;;24.05;20.97;;;28.10;83.80;;;;;;1807381;78;21712;-77
2022/03/07 09:47:13;;;;;;;26.65;22.00;;;28.10;82.70;;;;;;1801629;77;21131;-76
2022/03/07 09:49:44;;;;;;;27.37;22.07;;;28.00;85.30;;;;;;1811130;77;21107;-77
2022/03/07 09:52:15;;;;;;;25.90;22.00;;;27.90;84.90;;;;;;1806584;77;21139;-77
2022/03/07 09:54:46;;;;;;;27.80;21.80;;;27.90;86.70;;;;;;1812373;78;21519;-77
2022/03/07 09:57:17;;;;;;;28.75;21.15;;;27.80;86.00;;;;;;1810422;77;21139;-78
2022/03/07 09:59:48;;;;;;;25.00;21.12;;;27.70;87.10;;;;;;1800748;78;21120;-75
2022/03/07 10:02:24;;;;;;;31.02;21.12;;;27.60;87.00;;;;;;1806874;78;21104;-74
2022/03/07 10:04:55;;;;;;;24.12;21.25;;;27.50;86.00;;;;;;1801957;78;21709;-75
2022/03/07 10:07:26;;;;;;;24.43;21.45;;;27.50;86.80;;;;;;1804408;78;21135;-75
2022/03/07 10:09:59;;;;;;;24.70;22.07;;;27.40;88.60;;;;;;1812496;77;21645;-78
2022/03/07 10:12:30;;;;;;;26.27;20.90;;;27.30;88.00;;;;;;1805745;77;21099;-76
2022/03/07 10:15:03;;;;;;;22.40;19.20;;;27.30;88.70;;;;;;1804389;77;21108;-75
2022/03/07 10:17:34;;;;;;;22.90;20.43;;;27.20;90.20;;;;;;1806487;78;21094;-76
2022/03/07 10:20:07;;;;;;;24.00;21.37;;;27.20;90.00;;;;;;1809254;78;21272;-74
2022/03/07 10:22:41;;;;;;;22.90;20.40;;;27.10;90.60;;;;;;1804225;78;21620;-75
2022/03/07 10:25:11;;;;;;;26.48;20.70;;;27.00;90.90;;;;;;1807342;78;21618;-76
2022/03/07 10:27:48;;;;;;;29.10;22.77;;;27.00;90.40;;;;;;1803128;78;21161;-76
2022/03/07 10:30:21;;;;;;;26.95;22.67;;;27.00;91.10;;;;;;1802253;78;21103;-76
2022/03/07 10:32:55;;;;;;;26.95;23.42;;;27.00;91.50;;;;;;1802490;78;21165;-76
2022/03/07 10:35:28;;;;;;;28.60;24.12;;;27.00;91.30;;;;;;1799694;78;21170;-76
2022/03/07 10:38:01;;;;;;;26.33;23.40;;;26.90;90.80;;;;;;1812171;78;21626;-76
2022/03/07 10:40:34;;;;;;;27.55;22.58;;;26.90;91.10;;;;;;1812100;77;21723;-76
2022/03/07 10:43:05;;;;;;;30.02;23.32;;;26.80;90.90;;;;;;1801364;78;21116;-76
2022/03/07 10:45:38;;;;;;;26.68;22.32;;;26.80;91.50;;;;;;1805439;78;21220;-76
2022/03/07 10:48:09;;;;;;;24.32;21.77;;;26.80;91.20;;;;;;1795084;78;21205;-77
2022/03/07 10:50:42;;;;;;;25.45;22.13;;;26.80;91.50;;;;;;1823875;77;21145;-76
2022/03/07 10:53:11;;;;;;;26.75;22.05;;;26.80;91.40;;;;;;1821026;77;21295;-76
2022/03/07 10:55:42;;;;;;;28.17;22.13;;;26.80;91.50;;;;;;1826537;77;21361;-78
2022/03/07 10:58:15;;;;;;;26.42;22.60;;;26.80;91.40;;;;;;1815440;77;21124;-78
2022/03/07 11:00:49;;;;;;;29.37;23.40;;;26.80;91.70;;;;;;1820137;77;21100;-78
2022/03/07 11:03:23;;;;;;;26.33;22.98;;;26.70;92.20;;;;;;1814022;78;21139;-75
2022/03/07 11:05:54;;;;;;;29.45;23.45;;;26.80;92.00;;;;;;1807310;78;21173;-76
2022/03/07 11:08:26;;;;;;;26.10;23.20;;;26.70;92.00;;;;;;1813745;77;21147;-76
2022/03/07 11:10:59;;;;;;;27.27;23.47;;;26.70;92.50;;;;;;1810480;77;22238;-77
2022/03/07 11:13:34;;;;;;;26.62;23.12;;;26.70;92.20;;;;;;1765910;80;21269;-77
2022/03/07 11:16:05;;;;;;;27.35;24.40;;;26.70;92.00;;;;;;1762302;80;21161;-76
2022/03/07 11:18:36;;;;;;;26.85;23.92;;;26.70;92.20;;;;;;1812114;77;21236;-78
2022/03/07 11:21:07;;;;;;;29.72;23.80;;;26.70;92.30;;;;;;1816244;77;21087;-77
2022/03/07 11:23:38;;;;;;;26.55;23.47;;;26.60;92.40;;;;;;1815066;77;21162;-76
2022/03/07 11:26:11;;;;;;;30.50;23.98;;;26.60;92.00;;;;;;1807623;77;21230;-76
2022/03/07 11:28:42;;;;;;;26.82;24.02;;;26.60;92.30;;;;;;1811028;77;21220;-78
2022/03/07 11:31:15;;;;;;;28.02;24.57;;;26.60;92.30;;;;;;1828356;77;21080;-78
2022/03/07 11:33:49;;;;;;;26.62;23.80;;;26.60;92.30;;;;;;1817599;77;22334;-76
2022/03/07 11:36:22;;;;;;;28.70;25.08;;;26.60;92.20;;;;;;1811206;77;21215;-78
2022/03/07 11:38:55;;;;;;;29.32;24.57;;;26.60;93.20;;;;;;1804110;78;21137;-79
2022/03/07 11:41:28;;;;;;;27.37;23.73;;;26.50;92.90;;;;;;1800086;78;21669;-77
2022/03/07 11:44:02;;;;;;;28.20;25.05;;;26.50;92.50;;;;;;1808710;78;21647;-76
2022/03/07 11:46:36;;;;;;;28.07;25.02;;;26.50;93.10;;;;;;1815893;77;21202;-79
2022/03/07 11:49:10;;;;;;;30.23;25.48;;;26.50;93.30;;;;;;1813302;77;21989;-77
2022/03/07 11:51:41;;;;;;;27.25;24.23;;;26.40;92.90;;;;;;1814622;77;21199;-77
2022/03/07 11:54:14;;;;;;;29.00;25.90;;;26.50;93.30;;;;;;1817523;77;21135;-76
2022/03/07 11:56:45;;;;;;;30.30;26.35;;;26.40;93.00;;;;;;1818517;77;21495;-76
2022/03/07 11:59:16;;;;;;;29.63;26.50;;;26.50;93.30;;;;;;1817282;77;21128;-79
2022/03/07 12:01:49;;;;;;;30.17;25.75;;;26.50;93.00;;;;;;1817599;77;21205;-76
2022/03/07 12:04:20;;;;;;;28.38;25.30;;;26.50;92.80;;;;;;1816373;77;21171;-79
2022/03/07 12:06:53;;;;;;;29.10;25.90;;;26.50;92.90;;;;;;1811396;77;21180;-78
2022/03/07 12:09:26;;;;;;;28.83;25.85;;;26.40;93.10;;;;;;1810476;77;21175;-76
2022/03/07 12:11:59;;;;;;;30.45;26.12;;;26.40;93.30;;;;;;1811507;77;21686;-77
2022/03/07 12:14:33;;;;;;;27.90;24.92;;;26.50;93.80;;;;;;1813315;77;21582;-78
2022/03/07 12:17:07;;;;;;;28.07;25.17;;;26.40;93.30;;;;;;1813733;77;21117;-76
2022/03/07 12:19:39;;;;;;;28.15;24.72;;;26.40;92.90;;;;;;1819259;77;21182;-76
2022/03/07 12:22:12;;;;;;;27.85;24.40;;;26.40;93.30;;;;;;1821876;77;21123;-76
2022/03/07 12:24:46;;;;;;;27.77;24.80;;;26.40;92.90;;;;;;1813247;77;21142;-77
2022/03/07 12:27:16;;;;;;;26.80;23.65;;;26.30;93.20;;;;;;1828676;77;21138;-77
2022/03/07 12:29:48;;;;;;;27.87;23.50;;;26.30;93.60;;;;;;1819117;77;21202;-76
2022/03/07 12:32:20;;;;;;;26.52;23.73;;;26.30;93.80;;;;;;1739605;81;22453;-76
2022/03/07 12:34:51;;;;;;;25.85;23.15;;;26.30;94.00;;;;;;1817290;77;21210;-77
2022/03/07 12:37:28;;;;;;;26.30;23.42;;;26.20;93.70;;;;;;1815330;77;21150;-76
2022/03/07 12:39:58;;;;;;;26.90;24.00;;;26.30;94.30;;;;;;1817811;77;21068;-77
2022/03/07 12:42:31;;;;;;;26.75;23.85;;;26.30;94.50;;;;;;1827424;77;21229;-77
2022/03/07 12:45:04;;;;;;;26.80;23.90;;;26.20;94.50;;;;;;1831488;77;21652;-76
2022/03/07 12:47:37;;;;;;;26.37;23.20;;;26.20;94.50;;;;;;1853916;77;21652;-77
2022/03/07 12:50:10;;;;;;;27.73;22.82;;;26.20;94.30;;;;;;1844564;77;21684;-77